Time;durP1;ratioP1;P1;durP2;ratioP2;P2;SDS_P1;SDS_P2;PMS_P1;PMS_P2;Temp;Humidity;BMP_temperature;BMP_pressure;BME280_temperature;BME280_humidity;BME280_pressure;Samples;Min_cycle;Max_cycle;Signal;HPM_P1;HPM_P2
2022/11/07 00:00:37;;;;;;;1.48;1.02;;;15.50;74.50;;;;;;10487194;28;20426;-53
2022/11/07 00:05:40;;;;;;;2.05;1.25;;;15.50;74.50;;;;;;10484093;28;20044;-53
2022/11/07 00:10:40;;;;;;;5.72;1.15;;;15.50;74.50;;;;;;10488267;28;20464;-53
2022/11/07 00:15:41;;;;;;;2.65;0.80;;;15.50;74.50;;;;;;10449184;28;20112;-53
2022/11/07 00:20:41;;;;;;;2.83;1.13;;;15.50;74.50;;;;;;10451226;28;20404;-50
2022/11/07 00:25:42;;;;;;;1.77;0.75;;;15.50;74.40;;;;;;10445897;28;20068;-54
2022/11/07 00:30:43;;;;;;;1.40;0.63;;;15.50;74.40;;;;;;10446867;28;20037;-54
2022/11/07 00:35:43;;;;;;;2.08;0.82;;;15.50;74.40;;;;;;10446784;28;20021;-52
2022/11/07 00:41:00;;;;;;;2.05;1.42;;;15.50;74.50;;;;;;10446953;28;20111;-53
2022/11/07 00:46:03;;;;;;;1.45;0.77;;;15.50;74.50;;;;;;10487875;28;20543;-54
2022/11/07 00:51:17;;;;;;;2.20;0.63;;;15.50;74.40;;;;;;10459461;28;20070;-53
2022/11/07 00:56:21;;;;;;;2.35;1.02;;;15.50;74.40;;;;;;10470178;28;20017;-52
2022/11/07 01:01:29;;;;;;;1.90;1.35;;;15.50;74.40;;;;;;10481606;28;20029;-53
2022/11/07 01:06:32;;;;;;;1.08;0.65;;;15.50;74.40;;;;;;10476494;28;20086;-53
2022/11/07 01:11:35;;;;;;;2.60;1.08;;;15.50;74.30;;;;;;10468411;28;20048;-54
2022/11/07 01:16:37;;;;;;;1.98;0.70;;;15.40;74.30;;;;;;10445868;28;20096;-53
2022/11/07 01:21:40;;;;;;;1.98;1.20;;;15.50;74.40;;;;;;10450591;28;20048;-54
2022/11/07 01:26:43;;;;;;;1.60;0.80;;;15.50;74.40;;;;;;10445512;28;20017;-51
2022/11/07 01:31:44;;;;;;;1.38;1.00;;;15.40;74.30;;;;;;10444480;28;20499;-54
2022/11/07 01:36:45;;;;;;;1.65;0.85;;;15.40;74.30;;;;;;10446802;28;20672;-52
2022/11/07 01:41:46;;;;;;;4.55;0.77;;;15.40;74.30;;;;;;10453258;28;20041;-54
2022/11/07 01:46:48;;;;;;;1.75;0.70;;;15.40;74.30;;;;;;10463948;28;20022;-52
2022/11/07 01:52:25;;;;;;;1.10;0.60;;;15.40;74.30;;;;;;10452575;28;20357;-54
2022/11/07 01:57:39;;;;;;;1.23;0.60;;;15.40;74.30;;;;;;10451985;28;20031;-53
2022/11/07 02:02:42;;;;;;;1.15;0.60;;;15.40;74.30;;;;;;10468367;28;20031;-54
2022/11/07 02:07:43;;;;;;;1.75;0.80;;;15.40;74.30;;;;;;10465128;28;20036;-54
2022/11/07 02:12:44;;;;;;;2.05;1.20;;;15.40;74.40;;;;;;10474315;28;20017;-53
2022/11/07 02:17:44;;;;;;;1.30;0.60;;;15.40;74.40;;;;;;10451591;28;20033;-54
2022/11/07 02:23:31;;;;;;;1.88;0.80;;;15.40;74.30;;;;;;10454397;28;20479;-54
2022/11/07 02:28:35;;;;;;;1.67;0.80;;;15.40;74.30;;;;;;10450213;28;20056;-52
2022/11/07 02:33:36;;;;;;;1.25;0.85;;;15.40;74.30;;;;;;10487815;28;20107;-54
2022/11/07 02:38:36;;;;;;;1.27;0.63;;;15.40;74.30;;;;;;10491739;28;20048;-55
2022/11/07 02:43:41;;;;;;;0.80;0.55;;;15.40;74.20;;;;;;10451776;28;20021;-53
2022/11/07 02:48:49;;;;;;;0.93;0.60;;;15.40;74.30;;;;;;10468535;28;20028;-54
2022/11/07 02:53:51;;;;;;;1.05;0.60;;;15.40;74.30;;;;;;10464536;28;20028;-54
2022/11/07 02:58:52;;;;;;;2.08;0.70;;;15.40;74.30;;;;;;10450046;28;20035;-52
2022/11/07 03:03:52;;;;;;;0.88;0.52;;;15.40;74.40;;;;;;10456407;28;20500;-53
2022/11/07 03:08:53;;;;;;;1.88;0.43;;;15.40;74.30;;;;;;10456343;28;20786;-54
2022/11/07 03:13:55;;;;;;;2.03;0.68;;;15.40;74.30;;;;;;10449326;28;20139;-52
2022/11/07 03:18:56;;;;;;;1.38;0.65;;;15.40;74.30;;;;;;10459591;28;20036;-52
2022/11/07 03:23:57;;;;;;;1.35;0.70;;;15.40;74.20;;;;;;10470618;28;20028;-52
2022/11/07 03:28:58;;;;;;;1.63;0.60;;;15.40;74.20;;;;;;10452179;28;20057;-54
2022/11/07 03:33:59;;;;;;;0.90;0.55;;;15.30;74.10;;;;;;10448645;28;20089;-54
2022/11/07 03:39:00;;;;;;;2.05;0.85;;;15.30;74.20;;;;;;10447206;28;20087;-53
2022/11/07 03:44:01;;;;;;;1.40;0.85;;;15.30;74.10;;;;;;10448436;28;20052;-53
2022/11/07 03:49:01;;;;;;;1.20;0.70;;;15.30;74.20;;;;;;10452923;28;20161;-53
2022/11/07 03:54:02;;;;;;;0.90;0.60;;;15.30;74.20;;;;;;10464543;28;20377;-53
2022/11/07 03:59:03;;;;;;;1.40;0.50;;;15.30;74.20;;;;;;10459868;28;20036;-53
2022/11/07 04:04:04;;;;;;;1.88;0.65;;;15.30;74.20;;;;;;10454447;28;20083;-54
2022/11/07 04:09:05;;;;;;;1.10;0.70;;;15.30;74.10;;;;;;10452022;28;20028;-53
2022/11/07 04:19:26;;;;;;;1.58;0.68;;;15.30;74.20;;;;;;10468987;28;20060;-53
2022/11/07 04:24:26;;;;;;;1.50;0.50;;;15.30;74.20;;;;;;10447092;28;20900;-53
2022/11/07 04:29:27;;;;;;;1.65;0.60;;;15.30;74.20;;;;;;10458765;28;20061;-54
2022/11/07 04:34:28;;;;;;;2.08;0.73;;;15.30;74.10;;;;;;10446835;28;20040;-53
2022/11/07 04:39:28;;;;;;;1.15;0.50;;;15.30;74.10;;;;;;10446151;28;20052;-55
2022/11/07 04:44:29;;;;;;;0.82;0.50;;;15.30;74.20;;;;;;10463835;28;20103;-52
2022/11/07 04:49:29;;;;;;;0.57;0.45;;;15.30;74.10;;;;;;10486152;28;20052;-53
2022/11/07 04:54:30;;;;;;;1.52;0.70;;;15.30;74.10;;;;;;10451703;28;20044;-53
2022/11/07 04:59:31;;;;;;;1.23;0.47;;;15.30;74.10;;;;;;10446053;28;20100;-53
2022/11/07 05:04:31;;;;;;;1.08;0.50;;;15.30;74.10;;;;;;10459489;28;20083;-54
2022/11/07 05:09:33;;;;;;;0.70;0.40;;;15.30;74.10;;;;;;10449983;28;20756;-54
2022/11/07 05:14:34;;;;;;;0.75;0.63;;;15.30;74.10;;;;;;10480701;28;20508;-54
2022/11/07 05:19:35;;;;;;;0.95;0.50;;;15.30;74.10;;;;;;10495498;28;20025;-52
2022/11/07 05:24:35;;;;;;;2.28;0.50;;;15.30;74.10;;;;;;10462192;28;20071;-53
2022/11/07 05:29:36;;;;;;;1.75;0.60;;;15.30;74.10;;;;;;10490561;28;20068;-53
2022/11/07 05:34:37;;;;;;;1.23;0.55;;;15.30;74.00;;;;;;10455699;28;20020;-53
2022/11/07 05:39:38;;;;;;;2.15;0.88;;;15.20;74.00;;;;;;10461423;28;20025;-52
2022/11/07 05:44:38;;;;;;;1.25;0.52;;;15.30;74.00;;;;;;10461052;28;20359;-53
2022/11/07 05:49:39;;;;;;;1.20;0.65;;;15.30;74.00;;;;;;10459624;28;20091;-52
2022/11/07 05:54:40;;;;;;;1.95;0.95;;;15.20;73.90;;;;;;10469804;28;20023;-55
2022/11/07 05:59:40;;;;;;;14.40;1.88;;;15.20;74.00;;;;;;10465412;28;20049;-55
2022/11/07 06:04:41;;;;;;;10.52;1.55;;;15.30;74.30;;;;;;10459125;28;20051;-54
2022/11/07 06:09:42;;;;;;;19.23;1.65;;;15.60;74.90;;;;;;10451785;28;20061;-53
2022/11/07 06:14:42;;;;;;;14.60;1.33;;;15.60;74.80;;;;;;10465104;28;20145;-52
2022/11/07 06:19:43;;;;;;;13.23;2.70;;;15.70;75.10;;;;;;10457004;28;20021;-56
2022/11/07 06:24:43;;;;;;;7.35;1.30;;;15.70;75.50;;;;;;10467593;28;20457;-50
2022/11/07 06:29:44;;;;;;;14.25;1.73;;;15.70;75.30;;;;;;10451015;28;20124;-54
2022/11/07 06:34:45;;;;;;;11.20;1.83;;;15.70;75.00;;;;;;10450897;28;20106;-53
2022/11/07 06:39:45;;;;;;;34.65;3.85;;;15.70;74.90;;;;;;10449946;28;20076;-55
2022/11/07 06:44:46;;;;;;;9.50;1.48;;;15.70;75.20;;;;;;10450895;28;20025;-52
2022/11/07 06:49:47;;;;;;;13.02;2.17;;;15.70;75.20;;;;;;10476391;28;20115;-52
2022/11/07 06:54:47;;;;;;;20.88;2.45;;;15.70;75.20;;;;;;10454352;28;20502;-52
2022/11/07 06:59:48;;;;;;;16.00;2.10;;;15.80;75.00;;;;;;10452394;28;20029;-52
2022/11/07 07:04:48;;;;;;;24.70;3.17;;;15.80;74.80;;;;;;10462964;28;20118;-52
2022/11/07 07:09:49;;;;;;;24.95;2.78;;;15.70;75.00;;;;;;10451563;28;20083;-54
2022/11/07 07:14:50;;;;;;;21.77;2.88;;;15.70;75.20;;;;;;10480927;28;20059;-53
2022/11/07 07:19:51;;;;;;;16.33;3.13;;;15.70;74.90;;;;;;10486877;28;20487;-52
2022/11/07 07:24:52;;;;;;;15.32;2.40;;;15.70;75.00;;;;;;10485640;28;20019;-54
2022/11/07 07:29:53;;;;;;;12.93;3.03;;;15.60;74.90;;;;;;10472965;28;20056;-55
2022/11/07 07:34:53;;;;;;;9.25;1.80;;;15.60;74.90;;;;;;10468735;28;20069;-53
2022/11/07 07:39:54;;;;;;;10.82;2.65;;;15.50;75.00;;;;;;10461735;28;20021;-54
2022/11/07 07:44:55;;;;;;;13.95;2.33;;;15.50;75.00;;;;;;10471475;28;20055;-54
2022/11/07 07:49:55;;;;;;;5.18;1.42;;;15.50;74.90;;;;;;10486800;28;20128;-53
2022/11/07 07:54:56;;;;;;;11.00;2.53;;;15.40;74.90;;;;;;10488755;28;20060;-54
2022/11/07 07:59:57;;;;;;;9.20;1.98;;;15.40;75.50;;;;;;10447445;28;20025;-55
2022/11/07 08:04:57;;;;;;;12.13;2.60;;;15.40;74.90;;;;;;10453171;28;20183;-55
2022/11/07 08:09:58;;;;;;;7.35;1.52;;;15.40;75.00;;;;;;10476367;28;20124;-55
2022/11/07 08:14:59;;;;;;;9.35;2.20;;;15.40;75.00;;;;;;10473808;28;20440;-54
2022/11/07 08:19:59;;;;;;;16.88;3.65;;;15.40;74.90;;;;;;10484673;28;20517;-55
2022/11/07 08:25:00;;;;;;;6.72;1.48;;;15.40;74.90;;;;;;10447107;28;20109;-55
2022/11/07 08:30:03;;;;;;;5.78;1.95;;;15.50;74.80;;;;;;10446443;28;20087;-54
2022/11/07 08:35:04;;;;;;;7.10;3.25;;;15.50;74.80;;;;;;10446880;28;20017;-55
2022/11/07 08:40:06;;;;;;;7.07;1.60;;;15.50;74.80;;;;;;10446440;28;20029;-54
2022/11/07 08:45:07;;;;;;;3.92;1.52;;;15.50;74.70;;;;;;10472608;28;20024;-55
2022/11/07 08:50:08;;;;;;;4.72;1.35;;;15.50;74.70;;;;;;10495387;28;20056;-53
2022/11/07 08:55:09;;;;;;;9.68;1.13;;;15.50;74.70;;;;;;10496301;28;20766;-55
2022/11/07 09:00:11;;;;;;;7.35;1.58;;;15.50;74.70;;;;;;10494851;28;20107;-54
2022/11/07 09:05:11;;;;;;;5.38;1.40;;;15.50;74.70;;;;;;10478329;28;20045;-54
2022/11/07 09:10:12;;;;;;;4.20;1.35;;;15.50;74.70;;;;;;10459084;28;20435;-55
2022/11/07 09:15:14;;;;;;;4.75;1.17;;;15.50;74.70;;;;;;10454036;28;20096;-54
2022/11/07 09:20:14;;;;;;;3.10;1.17;;;15.50;74.70;;;;;;10458856;28;20091;-54
2022/11/07 09:25:15;;;;;;;7.90;1.77;;;15.50;74.70;;;;;;10467003;28;20603;-54
2022/11/07 09:30:20;;;;;;;3.50;1.27;;;15.40;74.70;;;;;;10465475;28;20060;-55
2022/11/07 09:35:21;;;;;;;3.22;1.15;;;15.40;74.60;;;;;;10452173;28;20384;-54
2022/11/07 09:40:50;;;;;;;3.30;1.10;;;15.40;74.70;;;;;;10466152;28;20032;-55
2022/11/07 09:46:03;;;;;;;3.83;1.45;;;15.40;74.50;;;;;;10465066;28;20029;-55
2022/11/07 09:51:07;;;;;;;6.20;2.90;;;15.40;74.70;;;;;;10466344;28;20460;-54
2022/11/07 09:56:11;;;;;;;4.50;1.00;;;15.40;74.70;;;;;;10452167;28;20025;-54
2022/11/07 10:01:19;;;;;;;3.72;1.27;;;15.40;74.60;;;;;;10450846;28;20025;-54
2022/11/07 10:06:34;;;;;;;3.15;1.35;;;15.40;74.70;;;;;;10470527;28;20102;-55
2022/11/07 10:11:44;;;;;;;4.00;1.15;;;15.40;74.70;;;;;;10463548;28;20033;-55
2022/11/07 10:17:34;;;;;;;3.90;1.00;;;15.40;74.70;;;;;;10451842;28;20078;-55
2022/11/07 10:23:23;;;;;;;6.43;1.53;;;15.40;74.70;;;;;;10450176;28;20827;-53
2022/11/07 10:28:26;;;;;;;4.43;0.80;;;15.40;74.70;;;;;;10443838;28;20544;-54
2022/11/07 10:33:57;;;;;;;5.40;1.00;;;15.40;74.80;;;;;;10450906;28;20035;-53
2022/11/07 10:39:00;;;;;;;6.30;1.52;;;15.40;74.70;;;;;;10449552;28;20071;-54
2022/11/07 10:44:10;;;;;;;2.83;1.08;;;15.40;74.60;;;;;;10467455;28;20463;-52
2022/11/07 10:49:23;;;;;;;4.18;1.20;;;15.40;74.60;;;;;;10491593;28;20032;-51
2022/11/07 10:54:28;;;;;;;2.78;0.88;;;15.40;74.60;;;;;;10466750;28;20480;-53
2022/11/07 10:59:33;;;;;;;4.03;1.33;;;15.40;74.60;;;;;;10447784;28;20029;-55
2022/11/07 11:04:37;;;;;;;2.90;1.23;;;15.40;74.60;;;;;;10452248;28;20477;-53
2022/11/07 11:09:52;;;;;;;5.32;1.35;;;15.40;74.80;;;;;;10473815;28;20025;-55
2022/11/07 11:15:24;;;;;;;8.15;1.95;;;15.40;74.90;;;;;;10488434;28;20020;-53
2022/11/07 11:20:45;;;;;;;4.75;1.40;;;15.40;74.80;;;;;;10455605;28;20068;-53
2022/11/07 11:25:49;;;;;;;3.40;1.10;;;15.40;74.70;;;;;;10448329;28;20039;-54
2022/11/07 11:30:57;;;;;;;3.65;1.60;;;15.40;74.70;;;;;;10448795;28;20419;-51
2022/11/07 11:36:08;;;;;;;4.20;1.13;;;15.40;74.90;;;;;;10447336;28;20360;-54
2022/11/07 11:41:20;;;;;;;3.53;1.33;;;15.40;75.00;;;;;;10460234;28;20013;-54
2022/11/07 11:46:35;;;;;;;4.38;1.30;;;15.40;75.00;;;;;;10447936;28;20133;-54
2022/11/07 11:51:57;;;;;;;4.88;1.55;;;15.40;75.00;;;;;;10448266;28;20068;-55
2022/11/07 11:57:04;;;;;;;2.50;0.88;;;15.50;74.90;;;;;;10473316;28;20594;-53
2022/11/07 12:02:48;;;;;;;5.75;1.23;;;15.50;75.00;;;;;;10460243;28;20025;-53
2022/11/07 12:08:39;;;;;;;1.88;0.98;;;15.50;75.00;;;;;;10487133;28;20044;-52
2022/11/07 12:14:26;;;;;;;4.37;1.73;;;15.50;75.20;;;;;;10447200;28;20025;-53
2022/11/07 12:19:52;;;;;;;6.68;1.45;;;15.50;75.20;;;;;;10448610;28;20028;-54
2022/11/07 12:25:15;;;;;;;2.60;1.17;;;15.50;74.90;;;;;;10446269;28;20025;-52
2022/11/07 12:30:32;;;;;;;6.22;1.20;;;15.50;75.30;;;;;;10446879;28;20026;-53
2022/11/07 12:35:53;;;;;;;4.80;1.20;;;15.60;75.40;;;;;;10473809;28;20686;-53
2022/11/07 12:41:16;;;;;;;4.70;1.30;;;15.60;75.40;;;;;;10445168;28;20539;-52
2022/11/07 12:46:42;;;;;;;8.38;1.25;;;15.60;75.60;;;;;;10482396;28;20403;-52
2022/11/07 12:51:56;;;;;;;5.03;1.35;;;15.60;75.10;;;;;;10459712;28;20770;-53
2022/11/07 12:56:57;;;;;;;4.93;1.50;;;15.60;75.20;;;;;;10457901;28;20033;-51
2022/11/07 13:02:00;;;;;;;4.85;1.40;;;15.50;75.10;;;;;;10446491;28;20021;-52
2022/11/07 13:07:27;;;;;;;4.70;1.30;;;15.50;75.20;;;;;;10452597;28;20515;-52
2022/11/07 13:12:41;;;;;;;4.40;1.17;;;15.50;75.10;;;;;;10449535;28;20032;-53
2022/11/07 13:17:46;;;;;;;6.78;1.60;;;15.50;75.10;;;;;;10458715;28;20111;-51
2022/11/07 13:22:52;;;;;;;12.60;2.00;;;15.60;75.20;;;;;;10465603;28;20020;-50
2022/11/07 13:27:56;;;;;;;5.60;1.52;;;15.60;75.20;;;;;;10481151;28;20128;-53
2022/11/07 13:32:58;;;;;;;4.25;1.58;;;15.60;75.20;;;;;;10445924;28;20060;-51
2022/11/07 13:38:10;;;;;;;7.40;1.58;;;15.50;75.00;;;;;;10470458;28;20028;-51
2022/11/07 13:43:22;;;;;;;4.10;1.70;;;15.50;75.10;;;;;;10456617;28;20022;-52
2022/11/07 13:48:47;;;;;;;4.22;1.23;;;15.50;75.10;;;;;;10451737;28;20025;-53
2022/11/07 13:54:13;;;;;;;3.40;1.40;;;15.50;75.10;;;;;;10452922;28;20667;-50
2022/11/07 13:59:57;;;;;;;5.43;1.02;;;15.50;75.10;;;;;;10452292;28;20018;-51
2022/11/07 14:05:10;;;;;;;3.78;1.90;;;15.50;75.10;;;;;;10449837;28;20065;-52
2022/11/07 14:10:24;;;;;;;5.18;1.23;;;15.50;75.00;;;;;;10450183;28;20503;-51
2022/11/07 14:15:25;;;;;;;5.43;1.65;;;15.50;75.00;;;;;;10450935;28;20049;-52
2022/11/07 14:20:26;;;;;;;2.75;1.15;;;15.40;75.00;;;;;;10456022;28;20199;-52
2022/11/07 14:25:36;;;;;;;5.50;1.40;;;15.40;75.00;;;;;;10451459;28;20355;-53
2022/11/07 14:30:41;;;;;;;5.47;1.45;;;15.40;75.10;;;;;;10450061;28;20115;-53
2022/11/07 14:35:46;;;;;;;3.47;1.15;;;15.40;75.00;;;;;;10450347;28;20017;-54
2022/11/07 14:40:49;;;;;;;3.65;1.67;;;15.40;75.00;;;;;;10452809;28;20041;-53
2022/11/07 14:46:00;;;;;;;3.28;1.45;;;15.50;75.20;;;;;;10491377;28;20028;-51
2022/11/07 14:51:02;;;;;;;4.22;1.50;;;15.50;75.00;;;;;;10477093;28;20104;-53
2022/11/07 14:56:07;;;;;;;2.45;1.10;;;15.40;74.90;;;;;;10476854;28;20023;-53
2022/11/07 15:01:20;;;;;;;4.15;1.10;;;15.40;74.90;;;;;;10476670;28;20021;-52
2022/11/07 15:06:40;;;;;;;3.95;1.42;;;15.40;74.80;;;;;;10477269;28;20109;-53
2022/11/07 15:11:54;;;;;;;21.33;2.15;;;15.40;75.30;;;;;;10465123;28;20116;-53
2022/11/07 15:16:57;;;;;;;12.38;2.22;;;15.50;75.30;;;;;;10448087;28;20013;-53
2022/11/07 15:22:02;;;;;;;14.40;2.85;;;15.50;75.40;;;;;;10472638;28;20635;-53
2022/11/07 15:27:35;;;;;;;12.98;2.72;;;15.50;75.80;;;;;;10470537;28;20048;-51
2022/11/07 15:32:41;;;;;;;11.18;2.00;;;15.50;76.00;;;;;;10476740;28;20653;-47
2022/11/07 15:37:59;;;;;;;11.73;2.40;;;15.50;75.70;;;;;;10464607;28;20067;-52
2022/11/07 15:43:00;;;;;;;10.93;1.98;;;15.50;75.80;;;;;;10485399;28;20017;-52
2022/11/07 15:48:01;;;;;;;13.85;2.63;;;15.50;75.90;;;;;;10489092;28;20132;-49
2022/11/07 15:53:02;;;;;;;12.45;2.72;;;15.50;76.40;;;;;;10479402;28;20024;-52
2022/11/07 15:58:02;;;;;;;9.57;2.35;;;15.50;76.00;;;;;;10488079;28;20173;-52
2022/11/07 16:03:03;;;;;;;13.05;2.92;;;15.50;75.80;;;;;;10454655;28;20360;-52
2022/11/07 16:08:06;;;;;;;17.83;3.30;;;15.60;75.90;;;;;;10475026;28;20480;-52
2022/11/07 16:13:08;;;;;;;13.57;2.00;;;15.60;76.00;;;;;;10468038;28;20029;-51
2022/11/07 16:18:14;;;;;;;13.90;2.42;;;15.70;76.50;;;;;;10446176;28;20125;-48
2022/11/07 16:23:17;;;;;;;15.45;4.43;;;15.80;75.90;;;;;;10465998;28;20039;-52
2022/11/07 16:28:28;;;;;;;12.48;3.80;;;16.10;75.60;;;;;;10455106;28;20433;-52
2022/11/07 16:33:29;;;;;;;16.63;3.20;;;16.10;74.70;;;;;;10445382;28;20029;-53
2022/11/07 16:38:32;;;;;;;20.05;3.75;;;16.10;74.40;;;;;;10446275;28;20033;-53
2022/11/07 16:43:34;;;;;;;14.88;3.90;;;16.20;76.80;;;;;;10470707;28;20365;-54
2022/11/07 16:48:36;;;;;;;14.82;4.07;;;16.30;79.10;;;;;;10472152;28;20037;-54
2022/11/07 16:53:37;;;;;;;14.13;3.70;;;16.40;79.70;;;;;;10458256;28;20025;-53
2022/11/07 16:58:38;;;;;;;12.80;3.53;;;16.60;78.70;;;;;;10446007;28;20056;-54
2022/11/07 17:03:38;;;;;;;7.60;2.80;;;16.70;77.90;;;;;;10452697;28;20048;-55
2022/11/07 17:08:40;;;;;;;12.32;3.53;;;16.50;77.90;;;;;;10476542;28;20036;-54
2022/11/07 17:13:41;;;;;;;10.13;3.22;;;16.40;77.50;;;;;;10468896;28;20028;-55
2022/11/07 17:18:42;;;;;;;12.07;3.60;;;16.30;77.90;;;;;;10484769;28;20017;-54
2022/11/07 17:23:43;;;;;;;10.25;2.35;;;16.20;77.90;;;;;;10470083;28;20102;-55
2022/11/07 17:28:44;;;;;;;6.07;2.55;;;16.30;77.60;;;;;;10452923;28;20710;-54
2022/11/07 17:33:45;;;;;;;7.70;3.28;;;16.20;77.60;;;;;;10471267;28;20021;-54
2022/11/07 17:38:45;;;;;;;10.25;2.67;;;16.20;77.60;;;;;;10473371;28;20540;-54
2022/11/07 17:43:47;;;;;;;10.07;2.47;;;16.20;77.90;;;;;;10471274;28;20079;-53
2022/11/07 17:48:47;;;;;;;10.88;2.90;;;16.20;78.00;;;;;;10468570;28;20017;-54
2022/11/07 17:53:48;;;;;;;7.97;3.15;;;16.20;78.10;;;;;;10470915;28;20502;-53
2022/11/07 17:58:54;;;;;;;7.35;3.50;;;16.20;78.10;;;;;;10467150;28;20433;-54
2022/11/07 18:03:55;;;;;;;11.30;3.50;;;16.20;78.20;;;;;;10473884;28;20574;-54
2022/11/07 18:08:56;;;;;;;12.30;4.18;;;16.20;77.90;;;;;;10470232;28;20086;-54
2022/11/07 18:13:58;;;;;;;7.68;3.47;;;16.30;78.00;;;;;;10463139;28;20056;-54
2022/11/07 18:19:01;;;;;;;7.00;2.75;;;16.20;78.20;;;;;;10462633;28;20052;-54
2022/11/07 18:24:01;;;;;;;11.05;3.42;;;16.30;77.90;;;;;;10476844;28;20461;-53
2022/11/07 18:29:09;;;;;;;6.80;2.45;;;16.20;77.90;;;;;;10487648;28;20064;-55
2022/11/07 18:34:11;;;;;;;11.82;3.10;;;16.20;77.80;;;;;;10450967;28;20115;-51
2022/11/07 18:39:20;;;;;;;11.35;3.75;;;16.10;77.70;;;;;;10450283;28;20021;-51
2022/11/07 18:44:21;;;;;;;5.28;2.25;;;16.10;77.30;;;;;;10466358;28;20032;-52
2022/11/07 18:49:23;;;;;;;8.70;3.10;;;16.10;77.80;;;;;;10487153;28;20037;-51
2022/11/07 18:54:25;;;;;;;5.78;2.75;;;16.10;77.70;;;;;;10461344;28;20107;-52
2022/11/07 18:59:26;;;;;;;4.82;2.97;;;16.10;77.80;;;;;;10473605;28;20032;-52
2022/11/07 19:04:26;;;;;;;7.18;3.65;;;16.10;77.60;;;;;;10458781;28;20037;-51
2022/11/07 19:09:30;;;;;;;5.85;2.92;;;16.10;77.40;;;;;;10475603;28;20033;-50
2022/11/07 19:14:31;;;;;;;10.43;2.78;;;16.10;77.40;;;;;;10469771;28;20028;-49
2022/11/07 19:19:34;;;;;;;5.03;2.55;;;16.00;77.40;;;;;;10450691;28;20017;-50
2022/11/07 19:24:35;;;;;;;7.25;2.38;;;16.00;77.40;;;;;;10470098;28;20021;-53
2022/11/07 19:29:35;;;;;;;6.45;2.28;;;16.00;77.30;;;;;;10467588;28;20082;-52
2022/11/07 19:34:36;;;;;;;3.58;2.30;;;16.00;77.00;;;;;;10473128;28;20104;-50
2022/11/07 19:39:37;;;;;;;6.35;2.83;;;16.00;77.00;;;;;;10464537;28;20020;-52
2022/11/07 19:44:39;;;;;;;7.78;2.63;;;15.90;77.00;;;;;;10476738;28;20475;-51
2022/11/07 19:49:40;;;;;;;5.85;2.03;;;15.90;77.10;;;;;;10486557;28;20075;-53
2022/11/07 19:54:41;;;;;;;9.68;3.50;;;15.90;77.10;;;;;;10475334;28;20031;-53
2022/11/07 19:59:42;;;;;;;6.20;2.15;;;15.90;76.80;;;;;;10461743;28;20035;-53
2022/11/07 20:04:45;;;;;;;6.43;2.60;;;15.90;77.10;;;;;;10473514;28;20041;-51
2022/11/07 20:09:47;;;;;;;6.13;2.58;;;15.90;77.00;;;;;;10450448;28;20041;-50
2022/11/07 20:14:48;;;;;;;5.07;2.20;;;15.90;77.00;;;;;;10481483;28;20029;-53
2022/11/07 20:19:48;;;;;;;3.75;2.00;;;15.90;77.00;;;;;;10476677;28;20129;-50
2022/11/07 20:24:49;;;;;;;5.22;1.75;;;15.90;77.00;;;;;;10484532;28;20025;-52
2022/11/07 20:29:50;;;;;;;5.60;1.98;;;15.90;77.00;;;;;;10450131;28;20025;-51
2022/11/07 20:34:51;;;;;;;8.02;1.92;;;15.90;77.10;;;;;;10450278;28;20029;-51
2022/11/07 20:39:52;;;;;;;5.55;1.90;;;15.90;77.00;;;;;;10469976;28;20028;-53
2022/11/07 20:44:53;;;;;;;3.97;1.60;;;15.90;77.00;;;;;;10466281;28;20100;-51
2022/11/07 20:49:53;;;;;;;6.00;2.25;;;15.90;77.10;;;;;;10457306;28;20044;-51
2022/11/07 20:54:54;;;;;;;6.80;2.00;;;15.80;77.00;;;;;;10471497;28;20045;-54
2022/11/07 20:59:55;;;;;;;9.35;1.77;;;15.90;76.70;;;;;;10471217;28;20375;-53
2022/11/07 21:04:55;;;;;;;4.75;1.80;;;15.80;76.70;;;;;;10454191;28;20140;-53
2022/11/07 21:09:56;;;;;;;5.07;1.70;;;15.90;76.80;;;;;;10447976;28;20116;-56
2022/11/07 21:14:57;;;;;;;4.03;1.65;;;15.80;76.80;;;;;;10464229;28;20495;-53
2022/11/07 21:19:57;;;;;;;6.32;1.55;;;15.80;76.70;;;;;;10458000;28;20033;-53
2022/11/07 21:24:58;;;;;;;5.90;2.00;;;15.80;76.70;;;;;;10464704;28;20111;-53
2022/11/07 21:29:59;;;;;;;6.88;1.63;;;15.80;76.70;;;;;;10471315;28;20072;-52
2022/11/07 21:34:59;;;;;;;9.32;1.95;;;15.80;76.70;;;;;;10445443;28;20607;-53
2022/11/07 21:40:00;;;;;;;3.70;1.45;;;15.80;76.70;;;;;;10445957;28;20110;-53
2022/11/07 21:45:01;;;;;;;2.90;1.38;;;15.70;76.60;;;;;;10445162;28;20044;-53
2022/11/07 21:50:02;;;;;;;4.38;1.38;;;15.80;76.60;;;;;;10461029;28;20056;-56
2022/11/07 21:55:03;;;;;;;2.90;1.13;;;15.70;76.60;;;;;;10448352;28;20869;-53
2022/11/07 22:00:06;;;;;;;3.72;1.25;;;15.70;76.60;;;;;;10452649;28;20021;-54
2022/11/07 22:05:08;;;;;;;4.03;1.67;;;15.70;76.60;;;;;;10452313;28;20052;-52
2022/11/07 22:10:09;;;;;;;2.83;1.23;;;15.70;76.50;;;;;;10469929;28;20036;-53
2022/11/07 22:15:10;;;;;;;4.00;1.50;;;15.70;76.50;;;;;;10462584;28;20414;-53
2022/11/07 22:20:11;;;;;;;2.80;1.35;;;15.70;76.50;;;;;;10455873;28;20036;-53
2022/11/07 22:25:12;;;;;;;2.20;1.08;;;15.70;76.50;;;;;;10459286;28;20025;-52
2022/11/07 22:30:12;;;;;;;3.50;1.27;;;15.70;76.50;;;;;;10451229;28;20484;-53
2022/11/07 22:35:13;;;;;;;3.00;0.90;;;15.70;76.50;;;;;;10451350;28;20021;-53
2022/11/07 22:40:14;;;;;;;3.67;2.00;;;15.70;76.50;;;;;;10451187;28;20091;-52
2022/11/07 22:45:14;;;;;;;5.38;1.70;;;15.70;76.50;;;;;;10463773;28;20025;-53
2022/11/07 22:50:15;;;;;;;1.85;0.90;;;15.60;76.40;;;;;;10450522;28;20068;-51
2022/11/07 22:55:16;;;;;;;4.13;1.25;;;15.60;76.50;;;;;;10458370;28;20107;-53
2022/11/07 23:00:17;;;;;;;3.53;1.25;;;15.60;76.50;;;;;;10491057;28;20028;-53
2022/11/07 23:05:18;;;;;;;3.67;1.10;;;15.60;76.50;;;;;;10481709;28;20052;-53
2022/11/07 23:10:19;;;;;;;2.80;1.20;;;15.60;76.50;;;;;;10449846;28;20076;-54
2022/11/07 23:15:19;;;;;;;2.85;0.82;;;15.60;76.50;;;;;;10449725;28;20108;-52
2022/11/07 23:25:39;;;;;;;3.00;1.00;;;15.70;76.60;;;;;;10461337;28;20040;-53
2022/11/07 23:30:40;;;;;;;4.05;1.25;;;15.60;76.50;;;;;;10476046;28;21332;-53
2022/11/07 23:35:41;;;;;;;2.10;1.02;;;15.60;76.50;;;;;;10463105;28;20056;-53
2022/11/07 23:40:41;;;;;;;2.75;1.20;;;15.60;76.50;;;;;;10450972;28;20056;-53
2022/11/07 23:51:09;;;;;;;3.90;1.13;;;15.60;76.50;;;;;;10487562;28;20040;-52
2022/11/07 23:56:10;;;;;;;3.33;1.40;;;15.60;76.40;;;;;;10464853;28;20017;-53
